sensor_id;sensor_type;location;lat;lon;timestamp;pressure;altitude;pressure_sealevel;temperature;humidity
84957;BME280;75252;45.438;-73.814;2024-03-08T00:01:21;102268.66;;;4.87;49.07
84957;BME280;75252;45.438;-73.814;2024-03-08T00:03:47;102273.84;;;4.76;49.40
84957;BME280;75252;45.438;-73.814;2024-03-08T00:06:13;102278.22;;;4.70;48.84
84957;BME280;75252;45.438;-73.814;2024-03-08T00:08:39;102282.50;;;4.59;49.52
84957;BME280;75252;45.438;-73.814;2024-03-08T00:11:05;102279.78;;;4.45;49.18
84957;BME280;75252;45.438;-73.814;2024-03-08T00:13:31;102275.34;;;4.36;49.92
84957;BME280;75252;45.438;-73.814;2024-03-08T00:15:56;102284.06;;;4.32;49.38
84957;BME280;75252;45.438;-73.814;2024-03-08T00:18:23;102280.56;;;4.30;51.33
84957;BME280;75252;45.438;-73.814;2024-03-08T00:20:48;102277.03;;;4.24;49.42
84957;BME280;75252;45.438;-73.814;2024-03-08T00:23:14;102290.06;;;4.13;50.79
84957;BME280;75252;45.438;-73.814;2024-03-08T00:25:41;102289.13;;;4.02;51.28
84957;BME280;75252;45.438;-73.814;2024-03-08T00:28:07;102290.81;;;3.97;52.34
84957;BME280;75252;45.438;-73.814;2024-03-08T00:30:33;102290.78;;;3.94;52.73
84957;BME280;75252;45.438;-73.814;2024-03-08T00:32:59;102303.78;;;3.81;52.62
84957;BME280;75252;45.438;-73.814;2024-03-08T00:35:25;102301.94;;;3.71;52.19
84957;BME280;75252;45.438;-73.814;2024-03-08T00:37:51;102300.97;;;3.60;52.67
84957;BME280;75252;45.438;-73.814;2024-03-08T00:40:17;102300.09;;;3.62;53.94
84957;BME280;75252;45.438;-73.814;2024-03-08T00:42:43;102302.59;;;3.50;54.08
84957;BME280;75252;45.438;-73.814;2024-03-08T00:45:10;102306.00;;;3.41;54.06
84957;BME280;75252;45.438;-73.814;2024-03-08T00:47:36;102320.88;;;3.44;54.37
84957;BME280;75252;45.438;-73.814;2024-03-08T00:50:02;102316.31;;;3.26;53.64
84957;BME280;75252;45.438;-73.814;2024-03-08T00:52:31;102316.28;;;3.22;54.46
84957;BME280;75252;45.438;-73.814;2024-03-08T00:54:57;102317.03;;;3.13;54.93
84957;BME280;75252;45.438;-73.814;2024-03-08T00:57:23;102316.94;;;3.07;56.01
84957;BME280;75252;45.438;-73.814;2024-03-08T00:59:49;102315.97;;;2.99;55.25
84957;BME280;75252;45.438;-73.814;2024-03-08T01:02:15;102319.47;;;3.00;55.57
84957;BME280;75252;45.438;-73.814;2024-03-08T01:04:44;102327.34;;;2.98;55.62
84957;BME280;75252;45.438;-73.814;2024-03-08T01:07:10;102327.25;;;2.94;54.36
84957;BME280;75252;45.438;-73.814;2024-03-08T01:09:36;102331.50;;;2.84;54.51
84957;BME280;75252;45.438;-73.814;2024-03-08T01:12:02;102339.28;;;2.78;54.78
84957;BME280;75252;45.438;-73.814;2024-03-08T01:14:28;102334.78;;;2.69;56.40
84957;BME280;75252;45.438;-73.814;2024-03-08T01:16:57;102337.25;;;2.59;56.68
84957;BME280;75252;45.438;-73.814;2024-03-08T01:19:23;102341.56;;;2.55;56.47
84957;BME280;75252;45.438;-73.814;2024-03-08T01:21:49;102343.19;;;2.47;56.29
84957;BME280;75252;45.438;-73.814;2024-03-08T01:24:15;102359.66;;;2.42;56.83
84957;BME280;75252;45.438;-73.814;2024-03-08T01:26:41;102358.69;;;2.35;56.16
84957;BME280;75252;45.438;-73.814;2024-03-08T01:29:07;102367.34;;;2.31;56.32
84957;BME280;75252;45.438;-73.814;2024-03-08T01:31:33;102375.19;;;2.30;56.21
84957;BME280;75252;45.438;-73.814;2024-03-08T01:33:59;102366.44;;;2.29;55.11
84957;BME280;75252;45.438;-73.814;2024-03-08T01:36:25;102378.53;;;2.23;56.17
84957;BME280;75252;45.438;-73.814;2024-03-08T01:38:52;102374.19;;;2.23;55.72
84957;BME280;75252;45.438;-73.814;2024-03-08T01:41:18;102380.09;;;2.12;55.51
84957;BME280;75252;45.438;-73.814;2024-03-08T01:43:45;102385.16;;;2.03;56.16
84957;BME280;75252;45.438;-73.814;2024-03-08T01:46:14;102398.09;;;1.94;55.96
84957;BME280;75252;45.438;-73.814;2024-03-08T01:48:42;102398.00;;;1.89;54.42
84957;BME280;75252;45.438;-73.814;2024-03-08T01:51:09;102398.84;;;1.87;56.18
84957;BME280;75252;45.438;-73.814;2024-03-08T01:53:37;102393.75;;;1.94;55.86
84957;BME280;75252;45.438;-73.814;2024-03-08T01:56:04;102399.66;;;1.84;55.42
84957;BME280;75252;45.438;-73.814;2024-03-08T01:58:31;102409.19;;;1.81;56.90
84957;BME280;75252;45.438;-73.814;2024-03-08T02:00:59;102412.53;;;1.75;57.63
84957;BME280;75252;45.438;-73.814;2024-03-08T02:03:25;102416.03;;;1.75;56.72
84957;BME280;75252;45.438;-73.814;2024-03-08T02:05:51;102420.31;;;1.70;56.53
84957;BME280;75252;45.438;-73.814;2024-03-08T02:08:18;102423.75;;;1.69;57.18
84957;BME280;75252;45.438;-73.814;2024-03-08T02:10:45;102417.59;;;1.66;56.00
84957;BME280;75252;45.438;-73.814;2024-03-08T02:13:11;102424.53;;;1.65;57.07
84957;BME280;75252;45.438;-73.814;2024-03-08T02:15:56;102430.53;;;1.58;56.25
84957;BME280;75252;45.438;-73.814;2024-03-08T02:18:27;102425.03;;;1.46;56.81
84957;BME280;75252;45.438;-73.814;2024-03-08T02:20:58;102430.91;;;1.36;57.48
84957;BME280;75252;45.438;-73.814;2024-03-08T02:23:25;102438.91;;;1.44;58.08
84957;BME280;75252;45.438;-73.814;2024-03-08T02:25:53;102435.31;;;1.37;57.56
84957;BME280;75252;45.438;-73.814;2024-03-08T02:28:20;102439.63;;;1.35;56.32
84957;BME280;75252;45.438;-73.814;2024-03-08T02:30:47;102439.63;;;1.35;57.67
84957;BME280;75252;45.438;-73.814;2024-03-08T02:33:17;102443.88;;;1.32;58.13
84957;BME280;75252;45.438;-73.814;2024-03-08T02:35:47;102449.28;;;1.39;52.88
84957;BME280;75252;45.438;-73.814;2024-03-08T02:38:16;102446.53;;;1.33;53.90
84957;BME280;75252;45.438;-73.814;2024-03-08T02:40:42;102452.63;;;1.34;52.36
84957;BME280;75252;45.438;-73.814;2024-03-08T02:43:09;102446.69;;;1.41;49.85
84957;BME280;75252;45.438;-73.814;2024-03-08T02:45:36;102461.00;;;1.58;48.17
84957;BME280;75252;45.438;-73.814;2024-03-08T02:48:02;102457.91;;;1.77;45.64
84957;BME280;75252;45.438;-73.814;2024-03-08T02:50:28;102460.72;;;1.86;45.81
84957;BME280;75252;45.438;-73.814;2024-03-08T02:52:54;102443.41;;;1.93;44.93
84957;BME280;75252;45.438;-73.814;2024-03-08T02:55:20;102446.63;;;1.79;47.54
84957;BME280;75252;45.438;-73.814;2024-03-08T02:57:46;102449.97;;;1.72;47.56
84957;BME280;75252;45.438;-73.814;2024-03-08T03:00:15;102453.41;;;1.70;48.26
84957;BME280;75252;45.438;-73.814;2024-03-08T03:02:41;102454.34;;;1.73;46.75
84957;BME280;75252;45.438;-73.814;2024-03-08T03:05:08;102455.19;;;1.71;47.35
84957;BME280;75252;45.438;-73.814;2024-03-08T03:07:35;102452.34;;;1.60;48.21
84957;BME280;75252;45.438;-73.814;2024-03-08T03:10:02;102453.22;;;1.61;48.51
84957;BME280;75252;45.438;-73.814;2024-03-08T03:12:28;102455.78;;;1.59;46.80
84957;BME280;75252;45.438;-73.814;2024-03-08T03:14:55;102447.94;;;1.58;47.70
84957;BME280;75252;45.438;-73.814;2024-03-08T03:17:25;102452.25;;;1.56;47.41
84957;BME280;75252;45.438;-73.814;2024-03-08T03:19:52;102448.81;;;1.58;46.88
84957;BME280;75252;45.438;-73.814;2024-03-08T03:22:19;102447.25;;;1.68;47.37
84957;BME280;75252;45.438;-73.814;2024-03-08T03:24:45;102446.44;;;1.69;47.15
84957;BME280;75252;45.438;-73.814;2024-03-08T03:27:17;102450.81;;;1.71;45.14
84957;BME280;75252;45.438;-73.814;2024-03-08T03:29:44;102452.34;;;1.60;46.98
84957;BME280;75252;45.438;-73.814;2024-03-08T03:32:15;102452.25;;;1.57;47.26
84957;BME280;75252;45.438;-73.814;2024-03-08T03:34:41;102457.69;;;1.65;45.77
84957;BME280;75252;45.438;-73.814;2024-03-08T03:37:09;102455.88;;;1.62;45.80
84957;BME280;75252;45.438;-73.814;2024-03-08T03:39:39;102449.13;;;1.75;44.00
84957;BME280;75252;45.438;-73.814;2024-03-08T03:42:18;102453.69;;;1.84;43.36
84957;BME280;75252;45.438;-73.814;2024-03-08T03:44:45;102444.94;;;1.83;42.68
84957;BME280;75252;45.438;-73.814;2024-03-08T03:47:11;102452.84;;;1.85;43.40
84957;BME280;75252;45.438;-73.814;2024-03-08T03:49:37;102465.00;;;1.83;43.41
84957;BME280;75252;45.438;-73.814;2024-03-08T03:52:03;102466.06;;;1.92;41.67
84957;BME280;75252;45.438;-73.814;2024-03-08T03:54:30;102470.97;;;1.77;42.41
84957;BME280;75252;45.438;-73.814;2024-03-08T03:56:56;102466.59;;;1.74;41.90
84957;BME280;75252;45.438;-73.814;2024-03-08T03:59:22;102467.34;;;1.69;41.38
84957;BME280;75252;45.438;-73.814;2024-03-08T04:01:49;102463.75;;;1.64;41.78
84957;BME280;75252;45.438;-73.814;2024-03-08T04:04:15;102464.47;;;1.57;41.84
84957;BME280;75252;45.438;-73.814;2024-03-08T04:06:41;102468.00;;;1.59;42.27
84957;BME280;75252;45.438;-73.814;2024-03-08T04:09:07;102468.91;;;1.61;41.19
84957;BME280;75252;45.438;-73.814;2024-03-08T04:11:33;102465.44;;;1.62;42.06
84957;BME280;75252;45.438;-73.814;2024-03-08T04:13:59;102470.50;;;1.53;41.99
84957;BME280;75252;45.438;-73.814;2024-03-08T04:16:25;102465.13;;;1.47;43.25
84957;BME280;75252;45.438;-73.814;2024-03-08T04:18:52;102466.75;;;1.42;42.75
84957;BME280;75252;45.438;-73.814;2024-03-08T04:21:18;102461.47;;;1.39;43.78
84957;BME280;75252;45.438;-73.814;2024-03-08T04:23:46;102464.97;;;1.39;42.74
84957;BME280;75252;45.438;-73.814;2024-03-08T04:26:12;102470.88;;;1.31;44.53
84957;BME280;75252;45.438;-73.814;2024-03-08T04:28:38;102473.22;;;1.20;44.11
84957;BME280;75252;45.438;-73.814;2024-03-08T04:31:05;102475.91;;;1.22;44.13
84957;BME280;75252;45.438;-73.814;2024-03-08T04:33:32;102475.03;;;1.23;43.50
84957;BME280;75252;45.438;-73.814;2024-03-08T04:36:01;102478.50;;;1.22;42.78
84957;BME280;75252;45.438;-73.814;2024-03-08T04:38:30;102483.59;;;1.16;44.02
84957;BME280;75252;45.438;-73.814;2024-03-08T04:40:57;102487.19;;;1.21;43.27
84957;BME280;75252;45.438;-73.814;2024-03-08T04:43:23;102491.38;;;1.14;42.54
84957;BME280;75252;45.438;-73.814;2024-03-08T04:45:52;102490.56;;;1.17;43.47
84957;BME280;75252;45.438;-73.814;2024-03-08T04:48:19;102497.34;;;1.09;44.10
84957;BME280;75252;45.438;-73.814;2024-03-08T04:50:46;102489.41;;;1.04;44.02
84957;BME280;75252;45.438;-73.814;2024-03-08T04:53:12;102482.13;;;0.91;44.40
84957;BME280;75252;45.438;-73.814;2024-03-08T04:55:38;102474.38;;;0.94;44.09
84957;BME280;75252;45.438;-73.814;2024-03-08T04:58:04;102488.25;;;0.92;44.63
84957;BME280;75252;45.438;-73.814;2024-03-08T05:00:32;102491.69;;;0.90;44.01
84957;BME280;75252;45.438;-73.814;2024-03-08T05:02:58;102489.84;;;0.86;43.38
84957;BME280;75252;45.438;-73.814;2024-03-08T05:05:24;102483.38;;;0.71;45.93
84957;BME280;75252;45.438;-73.814;2024-03-08T05:07:51;102502.56;;;0.73;45.87
84957;BME280;75252;45.438;-73.814;2024-03-08T05:10:17;102496.47;;;0.72;45.66
84957;BME280;75252;45.438;-73.814;2024-03-08T05:12:44;102499.72;;;0.64;45.48
84957;BME280;75252;45.438;-73.814;2024-03-08T05:15:10;102501.44;;;0.63;45.87
84957;BME280;75252;45.438;-73.814;2024-03-08T05:17:36;102494.31;;;0.56;45.95
84957;BME280;75252;45.438;-73.814;2024-03-08T05:20:02;102503.81;;;0.53;45.50
84957;BME280;75252;45.438;-73.814;2024-03-08T05:22:29;102496.63;;;0.44;46.09
84957;BME280;75252;45.438;-73.814;2024-03-08T05:24:55;102506.41;;;0.53;46.07
84957;BME280;75252;45.438;-73.814;2024-03-08T05:27:21;102505.38;;;0.46;45.65
84957;BME280;75252;45.438;-73.814;2024-03-08T05:29:47;102505.22;;;0.40;45.94
84957;BME280;75252;45.438;-73.814;2024-03-08T05:32:13;102499.00;;;0.35;45.60
84957;BME280;75252;45.438;-73.814;2024-03-08T05:34:39;102506.00;;;0.38;46.27
84957;BME280;75252;45.438;-73.814;2024-03-08T05:37:05;102501.63;;;0.37;46.23
84957;BME280;75252;45.438;-73.814;2024-03-08T05:39:32;102514.81;;;0.41;45.57
84957;BME280;75252;45.438;-73.814;2024-03-08T05:41:58;102508.50;;;0.33;45.40
84957;BME280;75252;45.438;-73.814;2024-03-08T05:44:25;102516.16;;;0.27;45.89
84957;BME280;75252;45.438;-73.814;2024-03-08T05:46:54;102523.00;;;0.24;46.51
84957;BME280;75252;45.438;-73.814;2024-03-08T05:49:21;102528.31;;;0.27;44.77
84957;BME280;75252;45.438;-73.814;2024-03-08T05:51:47;102535.34;;;0.29;45.50
84957;BME280;75252;45.438;-73.814;2024-03-08T05:54:13;102526.47;;;0.23;45.90
84957;BME280;75252;45.438;-73.814;2024-03-08T05:56:40;102533.28;;;0.18;46.05
84957;BME280;75252;45.438;-73.814;2024-03-08T05:59:10;102538.41;;;0.15;45.10
84957;BME280;75252;45.438;-73.814;2024-03-08T06:01:36;102540.09;;;0.13;45.33
84957;BME280;75252;45.438;-73.814;2024-03-08T06:04:03;102535.94;;;0.19;44.76
84957;BME280;75252;45.438;-73.814;2024-03-08T06:06:29;102549.75;;;0.15;45.68
84957;BME280;75252;45.438;-73.814;2024-03-08T06:08:55;102544.56;;;0.17;44.79
84957;BME280;75252;45.438;-73.814;2024-03-08T06:11:25;102550.56;;;0.14;46.29
84957;BME280;75252;45.438;-73.814;2024-03-08T06:13:55;102549.47;;;0.06;45.72
84957;BME280;75252;45.438;-73.814;2024-03-08T06:16:26;102533.56;;;-0.03;45.22
84957;BME280;75252;45.438;-73.814;2024-03-08T06:18:57;102539.94;;;0.08;45.57
84957;BME280;75252;45.438;-73.814;2024-03-08T06:21:24;102538.75;;;-0.05;45.25
84957;BME280;75252;45.438;-73.814;2024-03-08T06:23:53;102537.06;;;-0.03;45.42
84957;BME280;75252;45.438;-73.814;2024-03-08T06:26:21;102547.47;;;-0.04;47.08
84957;BME280;75252;45.438;-73.814;2024-03-08T06:28:48;102537.09;;;-0.01;45.05
84957;BME280;75252;45.438;-73.814;2024-03-08T06:31:14;102545.69;;;-0.05;45.31
84957;BME280;75252;45.438;-73.814;2024-03-08T06:33:40;102551.56;;;-0.12;45.72
84957;BME280;75252;45.438;-73.814;2024-03-08T06:36:06;102554.09;;;-0.14;45.66
84957;BME280;75252;45.438;-73.814;2024-03-08T06:38:32;102553.28;;;-0.13;44.75
84957;BME280;75252;45.438;-73.814;2024-03-08T06:40:58;102558.47;;;-0.14;45.83
84957;BME280;75252;45.438;-73.814;2024-03-08T06:43:24;102554.78;;;-0.21;45.27
84957;BME280;75252;45.438;-73.814;2024-03-08T06:45:58;102554.00;;;-0.18;45.86
84957;BME280;75252;45.438;-73.814;2024-03-08T06:48:24;102548.72;;;-0.20;44.64
84957;BME280;75252;45.438;-73.814;2024-03-08T06:50:49;102564.34;;;-0.20;44.40
84957;BME280;75252;45.438;-73.814;2024-03-08T06:53:16;102562.63;;;-0.19;44.16
84957;BME280;75252;45.438;-73.814;2024-03-08T06:55:44;102565.13;;;-0.24;44.63
84957;BME280;75252;45.438;-73.814;2024-03-08T06:58:10;102564.97;;;-0.28;45.44
84957;BME280;75252;45.438;-73.814;2024-03-08T07:00:37;102563.19;;;-0.29;44.74
84957;BME280;75252;45.438;-73.814;2024-03-08T07:03:03;102550.09;;;-0.32;45.68
84957;BME280;75252;45.438;-73.814;2024-03-08T07:05:29;102550.97;;;-0.32;44.85
84957;BME280;75252;45.438;-73.814;2024-03-08T07:07:56;102548.38;;;-0.32;45.19
84957;BME280;75252;45.438;-73.814;2024-03-08T07:10:22;102538.72;;;-0.34;44.36
84957;BME280;75252;45.438;-73.814;2024-03-08T07:12:51;102540.31;;;-0.39;44.61
84957;BME280;75252;45.438;-73.814;2024-03-08T07:15:19;102553.19;;;-0.45;45.72
84957;BME280;75252;45.438;-73.814;2024-03-08T07:17:45;102548.56;;;-0.54;45.08
84957;BME280;75252;45.438;-73.814;2024-03-08T07:20:13;102540.78;;;-0.52;45.03
84957;BME280;75252;45.438;-73.814;2024-03-08T07:22:39;102546.97;;;-0.49;45.02
84957;BME280;75252;45.438;-73.814;2024-03-08T07:25:06;102542.69;;;-0.47;45.03
84957;BME280;75252;45.438;-73.814;2024-03-08T07:27:32;102537.22;;;-0.56;45.97
84957;BME280;75252;45.438;-73.814;2024-03-08T07:30:00;102548.13;;;-0.67;45.56
84957;BME280;75252;45.438;-73.814;2024-03-08T07:32:26;102537.69;;;-0.69;46.58
84957;BME280;75252;45.438;-73.814;2024-03-08T07:34:55;102530.16;;;-0.58;45.55
84957;BME280;75252;45.438;-73.814;2024-03-08T07:37:22;102530.88;;;-0.64;45.83
84957;BME280;75252;45.438;-73.814;2024-03-08T07:39:49;102528.84;;;-0.72;46.57
84957;BME280;75252;45.438;-73.814;2024-03-08T07:42:15;102532.28;;;-0.75;46.07
84957;BME280;75252;45.438;-73.814;2024-03-08T07:44:42;102525.97;;;-0.81;46.13
84957;BME280;75252;45.438;-73.814;2024-03-08T07:47:08;102519.84;;;-0.83;46.50
84957;BME280;75252;45.438;-73.814;2024-03-08T07:49:35;102516.25;;;-0.87;46.50
84957;BME280;75252;45.438;-73.814;2024-03-08T07:52:03;102520.03;;;-0.77;45.50
84957;BME280;75252;45.438;-73.814;2024-03-08T07:54:33;102515.53;;;-0.83;45.99
84957;BME280;75252;45.438;-73.814;2024-03-08T07:57:00;102511.69;;;-0.94;46.03
84957;BME280;75252;45.438;-73.814;2024-03-08T07:59:29;102520.66;;;-0.84;45.92
84957;BME280;75252;45.438;-73.814;2024-03-08T08:01:56;102535.19;;;-0.93;46.13
84957;BME280;75252;45.438;-73.814;2024-03-08T08:04:22;102533.31;;;-0.97;46.43
84957;BME280;75252;45.438;-73.814;2024-03-08T08:06:50;102559.19;;;-1.01;46.32
84957;BME280;75252;45.438;-73.814;2024-03-08T08:09:17;102543.41;;;-1.06;46.27
84957;BME280;75252;45.438;-73.814;2024-03-08T08:11:56;102554.06;;;-0.98;46.95
84957;BME280;75252;45.438;-73.814;2024-03-08T08:14:22;102546.94;;;-1.04;46.67
84957;BME280;75252;45.438;-73.814;2024-03-08T08:16:48;102540.69;;;-1.10;47.26
84957;BME280;75252;45.438;-73.814;2024-03-08T08:19:18;102544.25;;;-1.07;47.15
84957;BME280;75252;45.438;-73.814;2024-03-08T08:21:45;102556.94;;;-1.16;47.36
84957;BME280;75252;45.438;-73.814;2024-03-08T08:24:11;102548.84;;;-1.25;48.16
84957;BME280;75252;45.438;-73.814;2024-03-08T08:26:37;102547.91;;;-1.27;47.51
84957;BME280;75252;45.438;-73.814;2024-03-08T08:29:03;102561.59;;;-1.32;48.66
84957;BME280;75252;45.438;-73.814;2024-03-08T08:31:31;102555.47;;;-1.34;50.13
84957;BME280;75252;45.438;-73.814;2024-03-08T08:33:58;102546.09;;;-1.29;48.94
84957;BME280;75252;45.438;-73.814;2024-03-08T08:36:25;102548.59;;;-1.32;48.54
84957;BME280;75252;45.438;-73.814;2024-03-08T08:38:51;102550.78;;;-1.44;49.68
84957;BME280;75252;45.438;-73.814;2024-03-08T08:41:22;102553.38;;;-1.44;49.67
84957;BME280;75252;45.438;-73.814;2024-03-08T08:43:48;102553.09;;;-1.53;50.34
84957;BME280;75252;45.438;-73.814;2024-03-08T08:46:18;102552.44;;;-1.46;49.67
84957;BME280;75252;45.438;-73.814;2024-03-08T08:48:44;102553.94;;;-1.53;50.76
84957;BME280;75252;45.438;-73.814;2024-03-08T08:51:14;102550.41;;;-1.55;51.18
84957;BME280;75252;45.438;-73.814;2024-03-08T08:53:43;102553.16;;;-1.50;50.77
84957;BME280;75252;45.438;-73.814;2024-03-08T08:56:11;102559.06;;;-1.56;51.63
84957;BME280;75252;45.438;-73.814;2024-03-08T08:58:44;102561.66;;;-1.56;51.14
84957;BME280;75252;45.438;-73.814;2024-03-08T09:01:10;102566.22;;;-1.49;50.39
84957;BME280;75252;45.438;-73.814;2024-03-08T09:03:37;102563.53;;;-1.52;51.76
84957;BME280;75252;45.438;-73.814;2024-03-08T09:06:06;102570.41;;;-1.54;51.67
84957;BME280;75252;45.438;-73.814;2024-03-08T09:08:38;102576.88;;;-1.66;51.70
84957;BME280;75252;45.438;-73.814;2024-03-08T09:11:05;102580.13;;;-1.72;52.13
84957;BME280;75252;45.438;-73.814;2024-03-08T09:13:31;102580.97;;;-1.73;51.97
84957;BME280;75252;45.438;-73.814;2024-03-08T09:15:58;102584.63;;;-1.68;53.12
84957;BME280;75252;45.438;-73.814;2024-03-08T09:18:24;102571.44;;;-1.72;52.75
84957;BME280;75252;45.438;-73.814;2024-03-08T09:20:50;102579.28;;;-1.71;53.62
84957;BME280;75252;45.438;-73.814;2024-03-08T09:23:19;102582.84;;;-1.69;52.58
84957;BME280;75252;45.438;-73.814;2024-03-08T09:25:45;102584.44;;;-1.72;52.95
84957;BME280;75252;45.438;-73.814;2024-03-08T09:28:12;102590.63;;;-1.69;52.87
84957;BME280;75252;45.438;-73.814;2024-03-08T09:30:38;102589.81;;;-1.68;52.87
84957;BME280;75252;45.438;-73.814;2024-03-08T09:33:05;102589.56;;;-1.75;54.40
84957;BME280;75252;45.438;-73.814;2024-03-08T09:35:31;102592.19;;;-1.74;53.76
84957;BME280;75252;45.438;-73.814;2024-03-08T09:37:57;102599.91;;;-1.77;54.48
84957;BME280;75252;45.438;-73.814;2024-03-08T09:40:23;102593.34;;;-1.90;55.65
84957;BME280;75252;45.438;-73.814;2024-03-08T09:42:51;102589.31;;;-1.82;54.35
84957;BME280;75252;45.438;-73.814;2024-03-08T09:45:20;102593.63;;;-1.82;54.94
84957;BME280;75252;45.438;-73.814;2024-03-08T09:47:50;102592.25;;;-1.72;54.26
84957;BME280;75252;45.438;-73.814;2024-03-08T09:50:17;102589.38;;;-1.80;54.65
84957;BME280;75252;45.438;-73.814;2024-03-08T09:52:47;102595.41;;;-1.81;54.64
84957;BME280;75252;45.438;-73.814;2024-03-08T09:55:13;102590.94;;;-1.85;55.06
84957;BME280;75252;45.438;-73.814;2024-03-08T09:57:43;102595.81;;;-1.93;56.09
84957;BME280;75252;45.438;-73.814;2024-03-08T10:00:29;102595.91;;;-1.91;57.54
84957;BME280;75252;45.438;-73.814;2024-03-08T10:03:00;102591.75;;;-1.86;57.14
84957;BME280;75252;45.438;-73.814;2024-03-08T10:05:26;102594.03;;;-1.95;57.09
84957;BME280;75252;45.438;-73.814;2024-03-08T10:07:52;102601.69;;;-1.98;57.23
84957;BME280;75252;45.438;-73.814;2024-03-08T10:10:18;102603.44;;;-1.99;58.06
84957;BME280;75252;45.438;-73.814;2024-03-08T10:12:46;102607.69;;;-2.01;58.68
84957;BME280;75252;45.438;-73.814;2024-03-08T10:15:12;102612.75;;;-2.04;58.85
84957;BME280;75252;45.438;-73.814;2024-03-08T10:17:42;102613.63;;;-2.03;58.69
84957;BME280;75252;45.438;-73.814;2024-03-08T10:22:41;102591.84;;;-2.07;59.30
84957;BME280;75252;45.438;-73.814;2024-03-08T10:25:11;102596.50;;;-1.98;60.16
84957;BME280;75252;45.438;-73.814;2024-03-08T10:27:40;102603.19;;;-2.05;60.52
84957;BME280;75252;45.438;-73.814;2024-03-08T10:30:12;102588.19;;;-2.12;61.54
84957;BME280;75252;45.438;-73.814;2024-03-08T10:32:40;102610.63;;;-2.14;61.57
84957;BME280;75252;45.438;-73.814;2024-03-08T10:35:10;102598.94;;;-2.03;61.26
84957;BME280;75252;45.438;-73.814;2024-03-08T10:37:56;102609.97;;;-2.08;61.79
84957;BME280;75252;45.438;-73.814;2024-03-08T10:40:25;102620.34;;;-2.08;61.84
84957;BME280;75252;45.438;-73.814;2024-03-08T10:42:58;102625.88;;;-2.01;61.78
84957;BME280;75252;45.438;-73.814;2024-03-08T10:45:38;102624.78;;;-2.06;61.75
84957;BME280;75252;45.438;-73.814;2024-03-08T10:50:46;102630.84;;;-2.07;61.88
84957;BME280;75252;45.438;-73.814;2024-03-08T10:53:18;102631.78;;;-2.05;62.51
84957;BME280;75252;45.438;-73.814;2024-03-08T10:55:44;102637.69;;;-2.09;62.35
84957;BME280;75252;45.438;-73.814;2024-03-08T10:58:11;102649.34;;;-2.20;62.30
84957;BME280;75252;45.438;-73.814;2024-03-08T11:00:37;102651.38;;;-2.13;62.18
84957;BME280;75252;45.438;-73.814;2024-03-08T11:03:04;102664.91;;;-2.21;63.38
84957;BME280;75252;45.438;-73.814;2024-03-08T11:05:38;102657.69;;;-2.28;62.92
84957;BME280;75252;45.438;-73.814;2024-03-08T11:08:20;102663.19;;;-2.21;62.10
84957;BME280;75252;45.438;-73.814;2024-03-08T11:10:52;102665.66;;;-2.24;63.55
84957;BME280;75252;45.438;-73.814;2024-03-08T11:13:41;102660.31;;;-2.28;63.07
84957;BME280;75252;45.438;-73.814;2024-03-08T11:21:39;102672.50;;;-2.26;62.66
84957;BME280;75252;45.438;-73.814;2024-03-08T11:24:13;102679.44;;;-2.26;62.20
84957;BME280;75252;45.438;-73.814;2024-03-08T11:26:45;102682.66;;;-2.32;62.34
84957;BME280;75252;45.438;-73.814;2024-03-08T11:32:16;102690.28;;;-2.36;62.64
84957;BME280;75252;45.438;-73.814;2024-03-08T11:34:46;102679.94;;;-2.35;62.74
84957;BME280;75252;45.438;-73.814;2024-03-08T11:37:18;102683.34;;;-2.36;62.56
84957;BME280;75252;45.438;-73.814;2024-03-08T11:39:49;102679.19;;;-2.32;62.67
84957;BME280;75252;45.438;-73.814;2024-03-08T11:42:15;102687.13;;;-2.28;62.44
84957;BME280;75252;45.438;-73.814;2024-03-08T11:44:46;102682.84;;;-2.27;62.58
84957;BME280;75252;45.438;-73.814;2024-03-08T11:47:14;102682.13;;;-2.23;62.47
84957;BME280;75252;45.438;-73.814;2024-03-08T11:49:40;102691.00;;;-2.18;62.71
84957;BME280;75252;45.438;-73.814;2024-03-08T11:52:17;102703.66;;;-2.05;62.93
84957;BME280;75252;45.438;-73.814;2024-03-08T11:54:56;102686.41;;;-2.03;61.91
84957;BME280;75252;45.438;-73.814;2024-03-08T11:57:23;102694.38;;;-1.99;61.69
84957;BME280;75252;45.438;-73.814;2024-03-08T11:59:51;102697.19;;;-1.93;62.06
84957;BME280;75252;45.438;-73.814;2024-03-08T12:02:17;102693.97;;;-1.87;61.78
84957;BME280;75252;45.438;-73.814;2024-03-08T12:04:45;102694.13;;;-1.83;61.79
84957;BME280;75252;45.438;-73.814;2024-03-08T12:07:13;102696.97;;;-1.77;61.83
84957;BME280;75252;45.438;-73.814;2024-03-08T12:09:44;102703.47;;;-1.65;61.55
84957;BME280;75252;45.438;-73.814;2024-03-08T12:12:32;102700.53;;;-1.51;61.73
84957;BME280;75252;45.438;-73.814;2024-03-08T12:14:58;102695.50;;;-1.46;61.11
84957;BME280;75252;45.438;-73.814;2024-03-08T12:17:24;102699.22;;;-1.40;60.97
84957;BME280;75252;45.438;-73.814;2024-03-08T12:19:49;102700.03;;;-1.41;61.64
84957;BME280;75252;45.438;-73.814;2024-03-08T12:22:15;102705.66;;;-1.30;60.83
84957;BME280;75252;45.438;-73.814;2024-03-08T12:24:41;102712.03;;;-1.22;61.39
84957;BME280;75252;45.438;-73.814;2024-03-08T12:27:20;102707.03;;;-1.16;60.63
84957;BME280;75252;45.438;-73.814;2024-03-08T12:29:46;102708.06;;;-1.11;61.21
84957;BME280;75252;45.438;-73.814;2024-03-08T12:32:12;102713.31;;;-1.10;60.72
84957;BME280;75252;45.438;-73.814;2024-03-08T12:34:38;102719.69;;;-1.02;60.81
84957;BME280;75252;45.438;-73.814;2024-03-08T12:37:05;102717.34;;;-0.94;60.12
84957;BME280;75252;45.438;-73.814;2024-03-08T12:39:32;102723.84;;;-0.83;60.30
84957;BME280;75252;45.438;-73.814;2024-03-08T12:41:58;102730.44;;;-0.67;59.13
84957;BME280;75252;45.438;-73.814;2024-03-08T12:44:27;102731.34;;;-0.67;59.43
84957;BME280;75252;45.438;-73.814;2024-03-08T12:46:54;102726.31;;;-0.61;58.92
84957;BME280;75252;45.438;-73.814;2024-03-08T12:49:20;102732.84;;;-0.48;59.19
84957;BME280;75252;45.438;-73.814;2024-03-08T12:51:49;102730.63;;;-0.36;58.51